Observation data for Plains on 07/20/2019      Previous  Date       Current Mesonet Observations  Soil Data  Daily Summary Page  Observations in Plain Language
KPPS 200500Z 17016KT 29/12 A2998 RMK A01 T02900120  RH  036%=      5-min Rain = 0
KPPS 200505Z 17016G21KT 29/12 A2998 RMK A01 T02890119  RH  036%=      5-min Rain = 0
KPPS 200510Z 17016G21KT 29/12 A2998 RMK A01 T02880117  RH  036%=      5-min Rain = 0
KPPS 200515Z 17016G22KT 29/12 A2998 RMK A01 T02880115  RH  036%=      5-min Rain = 0
KPPS 200520Z 17015G21KT 29/11 A2998 RMK A01 T02870114  RH  035%=      5-min Rain = 0
KPPS 200525Z 17017G23KT 29/11 A2998 RMK A01 T02870112  RH  035%=      5-min Rain = 0
KPPS 200530Z 17016G22KT 29/11 A2998 RMK A01 T02860111  RH  035%=      5-min Rain = 0
KPPS 200535Z 17016G24KT 28/11 A2998 RMK A01 T02840111  RH  035%=      5-min Rain = 0
KPPS 200540Z 17015G21KT 28/11 A2998 RMK A01 T02830110  RH  035%=      5-min Rain = 0
KPPS 200545Z 17015G21KT 28/11 A2999 RMK A01 T02820110  RH  036%=      5-min Rain = 0
KPPS 200550Z 17016G21KT 28/11 A2999 RMK A01 T02810110  RH  036%=      5-min Rain = 0
KPPS 200555Z 17015KT 28/11 A2999 RMK A01 T02800110  RH  036%=      5-min Rain = 0
KPPS 200600Z 17015G20KT 28/11 A2999 RMK A01 T02790110  RH  036%=      5-min Rain = 0
KPPS 200605Z 17015KT 28/11 A2999 RMK A01 T02770111  RH  037%=      5-min Rain = 0
KPPS 200610Z 17015KT 28/11 A2999 RMK A01 T02760110  RH  037%=      5-min Rain = 0
KPPS 200615Z 17014G19KT 27/11 A2999 RMK A01 T02740111  RH  037%=      5-min Rain = 0
KPPS 200620Z 17015KT 27/11 A2999 RMK A01 T02740111  RH  037%=      5-min Rain = 0
KPPS 200625Z 17016KT 27/11 A2998 RMK A01 T02720111  RH  038%=      5-min Rain = 0
KPPS 200630Z 17015G21KT 27/11 A2998 RMK A01 T02730111  RH  038%=      5-min Rain = 0
KPPS 200635Z 17015G22KT 27/11 A2998 RMK A01 T02720111  RH  038%=      5-min Rain = 0
KPPS 200640Z 17016KT 27/11 A2998 RMK A01 T02700111  RH  038%=      5-min Rain = 0
KPPS 200645Z 17015KT 27/11 A2998 RMK A01 T02690112  RH  039%=      5-min Rain = 0
KPPS 200650Z 17015KT 27/11 A2998 RMK A01 T02680112  RH  039%=      5-min Rain = 0
KPPS 200655Z 18013G18KT 27/11 A2999 RMK A01 T02670112  RH  039%=      5-min Rain = 0
KPPS 200700Z 17013KT 27/11 A2999 RMK A01 T02660112  RH  040%=      5-min Rain = 0
KPPS 200705Z 17012G17KT 26/11 A2998 RMK A01 T02640112  RH  040%=      5-min Rain = 0
KPPS 200710Z 17012KT 26/11 A2998 RMK A01 T02620113  RH  041%=      5-min Rain = 0
KPPS 200715Z 17012KT 26/11 A2998 RMK A01 T02610113  RH  041%=      5-min Rain = 0
KPPS 200720Z 17013KT 26/11 A2998 RMK A01 T02610113  RH  041%=      5-min Rain = 0
KPPS 200725Z 17013KT 26/11 A2998 RMK A01 T02610114  RH  041%=      5-min Rain = 0
KPPS 200730Z 17013G18KT 26/11 A2998 RMK A01 T02600114  RH  042%=      5-min Rain = 0
KPPS 200735Z 17013G18KT 26/11 A2998 RMK A01 T02600114  RH  042%=      5-min Rain = 0
KPPS 200740Z 17011KT 26/12 A2998 RMK A01 T02590115  RH  042%=      5-min Rain = 0
KPPS 200745Z 17012KT 26/12 A2998 RMK A01 T02570115  RH  043%=      5-min Rain = 0
KPPS 200750Z 17012KT 26/12 A2998 RMK A01 T02560115  RH  043%=      5-min Rain = 0
KPPS 200755Z 17012KT 26/12 A2998 RMK A01 T02550115  RH  043%=      5-min Rain = 0
KPPS 200800Z 17011KT 25/12 A2997 RMK A01 T02540115  RH  043%=      5-min Rain = 0
KPPS 200805Z 17012KT 25/12 A2997 RMK A01 T02530115  RH  044%=      5-min Rain = 0
KPPS 200810Z 17011KT 25/12 A2997 RMK A01 T02510115  RH  044%=      5-min Rain = 0
KPPS 200815Z 17011KT 25/12 A2997 RMK A01 T02500115  RH  044%=      5-min Rain = 0
KPPS 200820Z 17011KT 25/12 A2997 RMK A01 T02500116  RH  045%=      5-min Rain = 0
KPPS 200825Z 17011KT 25/12 A2997 RMK A01 T02500116  RH  045%=      5-min Rain = 0
KPPS 200830Z 17010KT 25/12 A2997 RMK A01 T02480116  RH  045%=      5-min Rain = 0
KPPS 200835Z 17010KT 25/12 A2997 RMK A01 T02480117  RH  045%=      5-min Rain = 0
KPPS 200840Z 17009KT 25/12 A2997 RMK A01 T02470117  RH  046%=      5-min Rain = 0
KPPS 200845Z 17009KT 25/12 A2997 RMK A01 T02450117  RH  046%=      5-min Rain = 0
KPPS 200850Z 17008KT 25/12 A2997 RMK A01 T02450117  RH  046%=      5-min Rain = 0
KPPS 200855Z 17008KT 24/12 A2997 RMK A01 T02440117  RH  047%=      5-min Rain = 0
KPPS 200900Z 16009KT 24/12 A2997 RMK A01 T02430118  RH  047%=      5-min Rain = 0
KPPS 200905Z 16009KT 24/12 A2997 RMK A01 T02420118  RH  047%=      5-min Rain = 0
KPPS 200910Z 16008G13KT 24/12 A2997 RMK A01 T02410118  RH  048%=      5-min Rain = 0
KPPS 200915Z 16008KT 24/12 A2997 RMK A01 T02400118  RH  048%=      5-min Rain = 0
KPPS 200920Z 16008KT 24/12 A2997 RMK A01 T02400119  RH  048%=      5-min Rain = 0
KPPS 200925Z 15009KT 24/12 A2997 RMK A01 T02390119  RH  049%=      5-min Rain = 0
KPPS 200930Z 15008KT 24/12 A2997 RMK A01 T02370120  RH  050%=      5-min Rain = 0
KPPS 200935Z 15006KT 23/12 A2997 RMK A01 T02330120  RH  051%=      5-min Rain = 0
KPPS 200940Z 14005KT 23/12 A2997 RMK A01 T02270119  RH  052%=      5-min Rain = 0
KPPS 200945Z 14006KT 22/12 A2997 RMK A01 T02230119  RH  054%=      5-min Rain = 0
KPPS 200950Z 14006KT 22/12 A2997 RMK A01 T02210119  RH  054%=      5-min Rain = 0
KPPS 200955Z 15006KT 22/12 A2997 RMK A01 T02190119  RH  055%=      5-min Rain = 0
KPPS 201000Z 14007KT 22/12 A2997 RMK A01 T02170119  RH  056%=      5-min Rain = 0
KPPS 201005Z 14007KT 22/12 A2997 RMK A01 T02150119  RH  056%=      5-min Rain = 0
KPPS 201010Z 14008KT 21/12 A2997 RMK A01 T02140119  RH  057%=      5-min Rain = 0
KPPS 201015Z 15007KT 21/12 A2997 RMK A01 T02140119  RH  057%=      5-min Rain = 0
KPPS 201020Z 15008KT 22/12 A2997 RMK A01 T02150120  RH  057%=      5-min Rain = 0
KPPS 201025Z 15008KT 22/12 A2997 RMK A01 T02150120  RH  057%=      5-min Rain = 0
KPPS 201030Z 15008KT 21/12 A2997 RMK A01 T02140120  RH  057%=      5-min Rain = 0
KPPS 201035Z 15008KT 21/12 A2997 RMK A01 T02120120  RH  058%=      5-min Rain = 0
KPPS 201040Z 15008KT 21/12 A2997 RMK A01 T02110120  RH  058%=      5-min Rain = 0
KPPS 201045Z 15008KT 21/12 A2997 RMK A01 T02070120  RH  059%=      5-min Rain = 0
KPPS 201050Z 14008KT 20/12 A2997 RMK A01 T02040120  RH  061%=      5-min Rain = 0
KPPS 201055Z 14008KT 20/12 A2997 RMK A01 T02010121  RH  062%=      5-min Rain = 0
KPPS 201100Z 14008KT 20/12 A2997 RMK A01 T02000121  RH  063%=      5-min Rain = 0
KPPS 201105Z 14008KT 20/12 A2997 RMK A01 T02000121  RH  063%=      5-min Rain = 0
KPPS 201110Z 14008KT 20/12 A2997 RMK A01 T01980122  RH  064%=      5-min Rain = 0
KPPS 201115Z 14008KT 20/12 A2997 RMK A01 T01970122  RH  064%=      5-min Rain = 0
KPPS 201120Z 14008KT 20/12 A2997 RMK A01 T01970123  RH  064%=      5-min Rain = 0
KPPS 201125Z 14008KT 20/12 A2997 RMK A01 T01960123  RH  065%=      5-min Rain = 0
KPPS 201130Z 14008KT 20/12 A2997 RMK A01 T01960123  RH  065%=      5-min Rain = 0
KPPS 201135Z 15008KT 20/12 A2997 RMK A01 T01950123  RH  065%=      5-min Rain = 0
KPPS 201140Z 16008KT 20/12 A2997 RMK A01 T01950123  RH  065%=      5-min Rain = 0
KPPS 201145Z 16008KT 20/12 A2998 RMK A01 T01970123  RH  065%=      5-min Rain = 0
KPPS 201150Z 16008KT 20/12 A2998 RMK A01 T01990124  RH  064%=      5-min Rain = 0
KPPS 201155Z 16008KT 20/13 A2998 RMK A01 T02010125  RH  064%=      5-min Rain = 0
KPPS 201200Z 16008KT 20/13 A2998 RMK A01 T02020125  RH  064%=      5-min Rain = 0
KPPS 201205Z 16008KT 20/13 A2998 RMK A01 T02040126  RH  063%=      5-min Rain = 0
KPPS 201210Z 15008KT 20/13 A2998 RMK A01 T02030126  RH  063%=      5-min Rain = 0
KPPS 201215Z 15008KT 20/13 A2998 RMK A01 T02020125  RH  064%=      5-min Rain = 0
KPPS 201220Z 15009KT 20/13 A2998 RMK A01 T02020126  RH  064%=      5-min Rain = 0
KPPS 201225Z 15009KT 20/13 A2998 RMK A01 T02030127  RH  064%=      5-min Rain = 0
KPPS 201230Z 15008KT 20/13 A2998 RMK A01 T02040128  RH  064%=      5-min Rain = 0
KPPS 201235Z 15009KT 21/13 A2998 RMK A01 T02060128  RH  063%=      5-min Rain = 0
KPPS 201240Z 16009KT 21/13 A2998 RMK A01 T02100129  RH  062%=      5-min Rain = 0
KPPS 201245Z 16009KT 22/13 A2998 RMK A01 T02150130  RH  061%=      5-min Rain = 0
KPPS 201250Z 16009KT 22/13 A2998 RMK A01 T02190131  RH  060%=      5-min Rain = 0
KPPS 201255Z 16010KT 22/13 A2998 RMK A01 T02230132  RH  059%=      5-min Rain = 0
KPPS 201300Z 16010KT 23/13 A2998 RMK A01 T02260133  RH  058%=      5-min Rain = 0
KPPS 201305Z 17010KT 23/13 A2998 RMK A01 T02290134  RH  057%=      5-min Rain = 0
KPPS 201310Z 17011KT 23/14 A2998 RMK A01 T02320135  RH  056%=      5-min Rain = 0
KPPS 201315Z 17012KT 24/14 A2998 RMK A01 T02350136  RH  056%=      5-min Rain = 0
KPPS 201320Z 17011KT 24/14 A2998 RMK A01 T02400137  RH  055%=      5-min Rain = 0
KPPS 201325Z 17012KT 24/14 A2998 RMK A01 T02440138  RH  054%=      5-min Rain = 0
KPPS 201330Z 18012KT 25/14 A2998 RMK A01 T02460138  RH  053%=      5-min Rain = 0
KPPS 201335Z 18012G17KT 25/14 A2998 RMK A01 T02490139  RH  052%=      5-min Rain = 0
KPPS 201340Z 17013KT 25/14 A2998 RMK A01 T02520139  RH  052%=      5-min Rain = 0
KPPS 201345Z 17015KT 25/14 A2998 RMK A01 T02520139  RH  052%=      5-min Rain = 0
KPPS 201350Z 17014KT 25/14 A2998 RMK A01 T02530139  RH  051%=      5-min Rain = 0
KPPS 201355Z 17013KT 26/14 A2998 RMK A01 T02560140  RH  051%=      5-min Rain = 0
KPPS 201400Z 17013KT 26/14 A2998 RMK A01 T02580140  RH  050%=      5-min Rain = 0
KPPS 201405Z 18013KT 26/14 A2998 RMK A01 T02610141  RH  049%=      5-min Rain = 0
KPPS 201410Z 18013KT 26/14 A2998 RMK A01 T02630141  RH  049%=      5-min Rain = 0
KPPS 201415Z 18013KT 26/14 A2998 RMK A01 T02640141  RH  049%=      5-min Rain = 0
KPPS 201420Z 19014KT 27/14 A2998 RMK A01 T02680141  RH  048%=      5-min Rain = 0
KPPS 201425Z 18014KT 27/14 A2998 RMK A01 T02690141  RH  047%=      5-min Rain = 0
KPPS 201430Z 18014KT 27/14 A2998 RMK A01 T02720142  RH  047%=      5-min Rain = 0
KPPS 201435Z 18013KT 28/14 A2998 RMK A01 T02750143  RH  046%=      5-min Rain = 0
KPPS 201440Z 17014KT 28/14 A2998 RMK A01 T02780142  RH  045%=      5-min Rain = 0
KPPS 201445Z 17013KT 28/14 A2999 RMK A01 T02780143  RH  045%=      5-min Rain = 0
KPPS 201450Z 18013KT 28/14 A2999 RMK A01 T02830144  RH  044%=      5-min Rain = 0
KPPS 201455Z 18012KT 28/14 A2999 RMK A01 T02830143  RH  044%=      5-min Rain = 0
KPPS 201500Z 17013KT 29/14 A2999 RMK A01 T02860143  RH  044%=      5-min Rain = 0
KPPS 201505Z 18012KT 29/14 A2999 RMK A01 T02890143  RH  043%=      5-min Rain = 0
KPPS 201510Z 18011KT 29/14 A2999 RMK A01 T02880143  RH  043%=      5-min Rain = 0
KPPS 201515Z 18011KT 29/14 A2999 RMK A01 T02900144  RH  043%=      5-min Rain = 0
KPPS 201520Z 19012KT 29/14 A2999 RMK A01 T02930144  RH  042%=      5-min Rain = 0
KPPS 201525Z 19011KT 29/14 A2999 RMK A01 T02940143  RH  041%=      5-min Rain = 0
KPPS 201530Z 18011G16KT 30/14 A2999 RMK A01 T02960143  RH  041%=      5-min Rain = 0
KPPS 201535Z 18011G17KT 30/15 A2999 RMK A01 T03000146  RH  041%=      5-min Rain = 0
KPPS 201540Z 19011KT 30/15 A2999 RMK A01 T03030146  RH  040%=      5-min Rain = 0
KPPS 201545Z 19010KT 31/14 A2998 RMK A01 T03050144  RH  039%=      5-min Rain = 0
KPPS 201550Z 18012KT 31/15 A2998 RMK A01 T03090145  RH  038%=      5-min Rain = 0
KPPS 201555Z 19011G16KT 31/14 A2998 RMK A01 T03100143  RH  038%=      5-min Rain = 0
KPPS 201600Z 19011KT 31/14 A2998 RMK A01 T03120142  RH  037%=      5-min Rain = 0
KPPS 201605Z 19010G15KT 32/14 A2998 RMK A01 T03150142  RH  036%=      5-min Rain = 0
KPPS 201610Z 20011KT 32/14 A2998 RMK A01 T03170142  RH  036%=      5-min Rain = 0
KPPS 201615Z 20010G15KT 32/14 A2998 RMK A01 T03150141  RH  036%=      5-min Rain = 0
KPPS 201620Z 19011G16KT 32/14 A2998 RMK A01 T03160142  RH  036%=      5-min Rain = 0
KPPS 201625Z 18011KT 32/14 A2998 RMK A01 T03210141  RH  035%=      5-min Rain = 0
KPPS 201630Z 19011G21KT 32/14 A2998 RMK A01 T03240141  RH  034%=      5-min Rain = 0
KPPS 201635Z 21010G17KT 33/14 A2998 RMK A01 T03260138  RH  033%=      5-min Rain = 0
KPPS 201640Z 20009G18KT 33/14 A2998 RMK A01 T03310140  RH  033%=      5-min Rain = 0
KPPS 201645Z 19011KT 33/14 A2998 RMK A01 T03290138  RH  033%=      5-min Rain = 0
KPPS 201650Z 20009G15KT 33/14 A2998 RMK A01 T03300139  RH  033%=      5-min Rain = 0
KPPS 201655Z 20010KT 33/14 A2998 RMK A01 T03310136  RH  032%=      5-min Rain = 0
KPPS 201700Z 20009KT 34/14 A2998 RMK A01 T03360138  RH  032%=      5-min Rain = 0
KPPS 201705Z 18009G14KT 34/14 A2997 RMK A01 T03380138  RH  031%=      5-min Rain = 0
KPPS 201710Z 19011G16KT 34/14 A2997 RMK A01 T03410138  RH  031%=      5-min Rain = 0
KPPS 201715Z 19008G15KT 34/14 A2997 RMK A01 T03390138  RH  031%=      5-min Rain = 0
KPPS 201720Z 20010KT 34/13 A2997 RMK A01 T03430134  RH  030%=      5-min Rain = 0
KPPS 201725Z 19009G14KT 34/13 A2997 RMK A01 T03440133  RH  029%=      5-min Rain = 0
KPPS 201730Z 21009G14KT 35/13 A2997 RMK A01 T03510133  RH  028%=      5-min Rain = 0
KPPS 201735Z 19007G12KT 35/13 A2997 RMK A01 T03460131  RH  028%=      5-min Rain = 0
KPPS 201740Z 21008G16KT 35/13 A2997 RMK A01 T03520134  RH  028%=      5-min Rain = 0
KPPS 201745Z 21010G15KT 35/13 A2997 RMK A01 T03520133  RH  028%=      5-min Rain = 0
KPPS 201750Z 21009G16KT 35/13 A2997 RMK A01 T03540129  RH  027%=      5-min Rain = 0
KPPS 201755Z 22009G14KT 36/13 A2997 RMK A01 T03610132  RH  026%=      5-min Rain = 0
KPPS 201800Z 20010G15KT 36/13 A2996 RMK A01 T03600131  RH  026%=      5-min Rain = 0
KPPS 201805Z 20009KT 36/13 A2996 RMK A01 T03610132  RH  026%=      5-min Rain = 0
KPPS 201810Z 20011G18KT 37/13 A2996 RMK A01 T03650132  RH  026%=      5-min Rain = 0
KPPS 201815Z 18010G15KT 37/13 A2996 RMK A01 T03660130  RH  025%=      5-min Rain = 0
KPPS 201820Z 19008KT 36/13 A2996 RMK A01 T03640129  RH  025%=      5-min Rain = 0
KPPS 201825Z 20010G17KT 36/13 A2995 RMK A01 T03640126  RH  025%=      5-min Rain = 0
KPPS 201830Z 22009G15KT 37/13 A2995 RMK A01 T03700127  RH  024%=      5-min Rain = 0
KPPS 201835Z 19009G15KT 37/13 A2995 RMK A01 T03730126  RH  024%=      5-min Rain = 0
KPPS 201840Z 20009G14KT 37/12 A2995 RMK A01 T03720122  RH  023%=      5-min Rain = 0
KPPS 201845Z 20008G18KT 37/12 A2995 RMK A01 T03740119  RH  023%=      5-min Rain = 0
KPPS 201850Z 24007G13KT 38/12 A2995 RMK A01 T03780115  RH  021%=      5-min Rain = 0
KPPS 201855Z 19010KT 38/11 A2995 RMK A01 T03770112  RH  021%=      5-min Rain = 0
KPPS 201900Z 21006KT 38/11 A2994 RMK A01 T03790110  RH  021%=      5-min Rain = 0
KPPS 201905Z 16006KT 38/11 A2994 RMK A01 T03780114  RH  021%=      5-min Rain = 0
KPPS 201910Z 22009G14KT 38/11 A2994 RMK A01 T03770111  RH  021%=      5-min Rain = 0
KPPS 201915Z 24005G11KT 38/11 A2994 RMK A01 T03760105  RH  020%=      5-min Rain = 0
KPPS 201920Z 22008G15KT 37/11 A2994 RMK A01 T03710105  RH  021%=      5-min Rain = 0
KPPS 201925Z 22010KT 38/10 A2994 RMK A01 T03800100  RH  019%=      5-min Rain = 0
KPPS 201930Z 23006G11KT 38/10 A2993 RMK A01 T03830096  RH  018%=      5-min Rain = 0
KPPS 201935Z 21008G13KT 39/10 A2993 RMK A01 T03860097  RH  018%=      5-min Rain = 0
KPPS 201940Z 19007G12KT 38/10 A2993 RMK A01 T03830100  RH  019%=      5-min Rain = 0
KPPS 201945Z 20010G15KT 39/10 A2993 RMK A01 T03890097  RH  018%=      5-min Rain = 0
KPPS 201950Z 20008KT 39/10 A2993 RMK A01 T03910095  RH  017%=      5-min Rain = 0
KPPS 201955Z 18007G13KT 39/09 A2992 RMK A01 T03890093  RH  017%=      5-min Rain = 0
KPPS 202000Z 14006G12KT 39/09 A2992 RMK A01 T03860092  RH  018%=      5-min Rain = 0
KPPS 202005Z 16005KT 39/10 A2992 RMK A01 T03850097  RH  018%=      5-min Rain = 0
KPPS 202010Z 20009G16KT 38/10 A2992 RMK A01 T03840099  RH  019%=      5-min Rain = 0
KPPS 202015Z 21011G18KT 38/10 A2992 RMK A01 T03840095  RH  018%=      5-min Rain = 0
KPPS 202020Z 21008G14KT 39/09 A2992 RMK A01 T03870093  RH  018%=      5-min Rain = 0
KPPS 202025Z 17010G15KT 39/09 A2992 RMK A01 T03940085  RH  016%=      5-min Rain = 0
KPPS 202030Z 16004KT 39/09 A2991 RMK A01 T03930087  RH  016%=      5-min Rain = 0
KPPS 202035Z 17002KT 39/09 A2991 RMK A01 T03940088  RH  016%=      5-min Rain = 0
KPPS 202040Z 26004KT 40/10 A2991 RMK A01 T03960095  RH  017%=      5-min Rain = 0
KPPS 202045Z 23006KT 39/09 A2991 RMK A01 T03930094  RH  017%=      5-min Rain = 0
KPPS 202050Z 22006G11KT 39/10 A2991 RMK A01 T03910097  RH  018%=      5-min Rain = 0
KPPS 202055Z 18010G17KT 40/10 A2991 RMK A01 T03970101  RH  017%=      5-min Rain = 0
KPPS 202100Z 17005KT 39/10 A2991 RMK A01 T03940099  RH  018%=      5-min Rain = 0
KPPS 202105Z 17011G18KT 40/10 A299 RMK A01 T03970101  RH  018%=      5-min Rain = 0
KPPS 202110Z 16011G18KT 39/10 A2991 RMK A01 T03940097  RH  017%=      5-min Rain = 0
KPPS 202115Z 17006KT 39/10 A299 RMK A01 T03930099  RH  018%=      5-min Rain = 0
KPPS 202120Z 18009G14KT 39/10 A299 RMK A01 T03870101  RH  019%=      5-min Rain = 0
KPPS 202125Z 15010KT 39/11 A299 RMK A01 T03940105  RH  018%=      5-min Rain = 0
KPPS 202130Z 15008G13KT 40/10 A299 RMK A01 T03950103  RH  018%=      5-min Rain = 0
KPPS 202135Z 23007G16KT 39/10 A299 RMK A01 T03940099  RH  018%=      5-min Rain = 0
KPPS 202140Z 25006KT 40/10 A2989 RMK A01 T03970100  RH  017%=      5-min Rain = 0
KPPS 202145Z 20005G10KT 40/10 A2989 RMK A01 T03950098  RH  017%=      5-min Rain = 0
KPPS 202150Z 24008KT 39/10 A2989 RMK A01 T03890097  RH  018%=      5-min Rain = 0
KPPS 202155Z 24008KT 40/10 A2989 RMK A01 T03960097  RH  017%=      5-min Rain = 0
KPPS 202200Z 20007G14KT 39/10 A2989 RMK A01 T03930097  RH  017%=      5-min Rain = 0
KPPS 202205Z 22008G13KT 40/10 A2989 RMK A01 T03980102  RH  018%=      5-min Rain = 0
KPPS 202210Z 20010G16KT 40/10 A2989 RMK A01 T04000101  RH  017%=      5-min Rain = 0
KPPS 202215Z 16012KT 40/10 A2989 RMK A01 T03960100  RH  018%=      5-min Rain = 0
KPPS 202220Z 18008G14KT 39/10 A2989 RMK A01 T03930102  RH  018%=      5-min Rain = 0
KPPS 202225Z 22009KT 39/10 A2988 RMK A01 T03940099  RH  018%=      5-min Rain = 0
KPPS 202230Z 21007G13KT 40/10 A2988 RMK A01 T03980101  RH  018%=      5-min Rain = 0
KPPS 202235Z 19013G18KT 40/10 A2988 RMK A01 T03990101  RH  017%=      5-min Rain = 0
KPPS 202240Z 18015KT 40/10 A2988 RMK A01 T03960101  RH  018%=      5-min Rain = 0
KPPS 202245Z 17012KT 40/10 A2988 RMK A01 T03990103  RH  018%=      5-min Rain = 0
KPPS 202250Z 18011G18KT 40/10 A2988 RMK A01 T03960102  RH  018%=      5-min Rain = 0
KPPS 202255Z 17013KT 40/10 A2988 RMK A01 T03950101  RH  018%=      5-min Rain = 0
KPPS 202300Z 16012G18KT 38/10 A2988 RMK A01 T03830099  RH  019%=      5-min Rain = 0
KPPS 202305Z 15008G13KT 38/10 A2988 RMK A01 T03810100  RH  019%=      5-min Rain = 0
KPPS 202310Z 15011G16KT 38/10 A2988 RMK A01 T03820101  RH  019%=      5-min Rain = 0
KPPS 202315Z 14010KT 38/10 A2988 RMK A01 T03780104  RH  020%=      5-min Rain = 0
KPPS 202320Z 16008KT 38/10 A2988 RMK A01 T03760102  RH  020%=      5-min Rain = 0
KPPS 202325Z 18010G16KT 38/10 A2987 RMK A01 T03840102  RH  019%=      5-min Rain = 0
KPPS 202330Z 17012KT 39/10 A2987 RMK A01 T03890100  RH  018%=      5-min Rain = 0
KPPS 202335Z 17011KT 39/10 A2987 RMK A01 T03890098  RH  018%=      5-min Rain = 0
KPPS 202340Z 17013KT 39/10 A2987 RMK A01 T03880098  RH  018%=      5-min Rain = 0
KPPS 202345Z 18010G15KT 39/10 A2987 RMK A01 T03890100  RH  018%=      5-min Rain = 0
KPPS 202350Z 17013KT 39/11 A2987 RMK A01 T03860107  RH  019%=      5-min Rain = 0
KPPS 202355Z 18013G18KT 39/11 A2987 RMK A01 T03870107  RH  019%=      5-min Rain = 0
KPPS 210000Z 15013KT 39/11 A2987 RMK A01 T03850108  RH  020%=      5-min Rain = 0
KPPS 210005Z 16013KT 38/11 A2987 RMK A01 T03830110  RH  020%=      5-min Rain = 0
KPPS 210010Z 17011G18KT 38/11 A2987 RMK A01 T03790105  RH  020%=      5-min Rain = 0
KPPS 210015Z 18012KT 38/11 A2987 RMK A01 T03830105  RH  019%=      5-min Rain = 0
KPPS 210020Z 16012G21KT 38/11 A2987 RMK A01 T03800110  RH  020%=      5-min Rain = 0
KPPS 210025Z 15013KT 38/10 A2987 RMK A01 T03790104  RH  020%=      5-min Rain = 0
KPPS 210030Z 17012G17KT 38/10 A2987 RMK A01 T03780103  RH  020%=      5-min Rain = 0
KPPS 210035Z 17010G15KT 38/10 A2987 RMK A01 T03770102  RH  020%=      5-min Rain = 0
KPPS 210040Z 16011KT 38/10 A2987 RMK A01 T03770103  RH  020%=      5-min Rain = 0
KPPS 210045Z 17012KT 38/10 A2987 RMK A01 T03760101  RH  020%=      5-min Rain = 0
KPPS 210050Z 17012KT 37/11 A2987 RMK A01 T03740110  RH  021%=      5-min Rain = 0
KPPS 210055Z 15014G20KT 37/11 A2987 RMK A01 T03730109  RH  021%=      5-min Rain = 0
KPPS 210100Z 15016KT 37/11 A2987 RMK A01 T03690109  RH  022%=      5-min Rain = 0
KPPS 210105Z 15016KT 37/11 A2987 RMK A01 T03670110  RH  022%=      5-min Rain = 0
KPPS 210110Z 16012G17KT 37/11 A2988 RMK A01 T03660110  RH  022%=      5-min Rain = 0
KPPS 210115Z 16011KT 37/11 A2988 RMK A01 T03650109  RH  022%=      5-min Rain = 0
KPPS 210120Z 16011G16KT 36/10 A2988 RMK A01 T03630104  RH  021%=      5-min Rain = 0
KPPS 210125Z 16013G19KT 36/10 A2988 RMK A01 T03620104  RH  022%=      5-min Rain = 0
KPPS 210130Z 16013G18KT 36/10 A2988 RMK A01 T03580103  RH  022%=      5-min Rain = 0
KPPS 210135Z 16013KT 36/10 A2988 RMK A01 T03570103  RH  022%=      5-min Rain = 0
KPPS 210140Z 16012KT 36/10 A2988 RMK A01 T03550104  RH  023%=      5-min Rain = 0
KPPS 210145Z 16012G17KT 35/10 A2988 RMK A01 T03530104  RH  023%=      5-min Rain = 0
KPPS 210150Z 16013KT 35/10 A2989 RMK A01 T03510103  RH  023%=      5-min Rain = 0
KPPS 210155Z 15012KT 35/10 A2989 RMK A01 T03490103  RH  023%=      5-min Rain = 0
KPPS 210200Z 16012KT 35/10 A2989 RMK A01 T03470104  RH  023%=      5-min Rain = 0
KPPS 210205Z 15012KT 35/10 A2989 RMK A01 T03450104  RH  024%=      5-min Rain = 0
KPPS 210210Z 15010KT 34/11 A2989 RMK A01 T03420105  RH  024%=      5-min Rain = 0
KPPS 210215Z 15010G15KT 34/11 A2989 RMK A01 T03390106  RH  025%=      5-min Rain = 0
KPPS 210220Z 15010KT 34/11 A2989 RMK A01 T03360108  RH  026%=      5-min Rain = 0
KPPS 210225Z 15011KT 33/11 A2989 RMK A01 T03340109  RH  026%=      5-min Rain = 0
KPPS 210230Z 15012KT 33/11 A2989 RMK A01 T03340109  RH  026%=      5-min Rain = 0
KPPS 210235Z 15011KT 33/11 A2989 RMK A01 T03320110  RH  027%=      5-min Rain = 0
KPPS 210240Z 15011KT 33/11 A2989 RMK A01 T03300111  RH  027%=      5-min Rain = 0
KPPS 210245Z 14010KT 32/11 A2989 RMK A01 T03220112  RH  029%=      5-min Rain = 0
KPPS 210250Z 15011KT 32/11 A299 RMK A01 T03200113  RH  029%=      5-min Rain = 0
KPPS 210255Z 15010KT 32/11 A299 RMK A01 T03200113  RH  029%=      5-min Rain = 0
KPPS 210300Z 15012KT 32/11 A299 RMK A01 T03180114  RH  030%=      5-min Rain = 0
KPPS 210305Z 15011KT 32/12 A299 RMK A01 T03180116  RH  030%=      5-min Rain = 0
KPPS 210310Z 16013G18KT 32/12 A299 RMK A01 T03180119  RH  031%=      5-min Rain = 0
KPPS 210315Z 16014KT 32/12 A299 RMK A01 T03190120  RH  031%=      5-min Rain = 0
KPPS 210320Z 16013KT 32/12 A2991 RMK A01 T03180121  RH  031%=      5-min Rain = 0
KPPS 210325Z 16012KT 32/12 A2991 RMK A01 T03160121  RH  031%=      5-min Rain = 0
KPPS 210330Z 16012KT 32/12 A2991 RMK A01 T03150121  RH  032%=      5-min Rain = 0
KPPS 210335Z 16013G18KT 32/12 A2991 RMK A01 T03150120  RH  032%=      5-min Rain = 0
KPPS 210340Z 16013KT 31/12 A2992 RMK A01 T03140121  RH  032%=      5-min Rain = 0
KPPS 210345Z 16013G18KT 31/12 A2992 RMK A01 T03120121  RH  032%=      5-min Rain = 0
KPPS 210350Z 16015G20KT 31/12 A2992 RMK A01 T03120123  RH  033%=      5-min Rain = 0
KPPS 210355Z 17014G20KT 31/13 A2992 RMK A01 T03130125  RH  033%=      5-min Rain = 0
KPPS 210400Z 17014G19KT 31/13 A2993 RMK A01 T03120126  RH  033%=      5-min Rain = 0
KPPS 210405Z 16016G21KT 31/13 A2993 RMK A01 T03130127  RH  033%=      5-min Rain = 0
KPPS 210410Z 16015KT 31/13 A2993 RMK A01 T03120127  RH  034%=      5-min Rain = 0
KPPS 210415Z 17015G21KT 31/13 A2993 RMK A01 T03110127  RH  034%=      5-min Rain = 0
KPPS 210420Z 17015G21KT 31/13 A2994 RMK A01 T03100127  RH  034%=      5-min Rain = 0
KPPS 210425Z 17015G24KT 31/13 A2994 RMK A01 T03100126  RH  034%=      5-min Rain = 0
KPPS 210430Z 17016G23KT 31/13 A2994 RMK A01 T03100125  RH  034%=      5-min Rain = 0
KPPS 210435Z 17014KT 31/13 A2994 RMK A01 T03080125  RH  034%=      5-min Rain = 0
KPPS 210440Z 17014KT 31/13 A2995 RMK A01 T03070125  RH  034%=      5-min Rain = 0
KPPS 210445Z 17015G20KT 31/12 A2995 RMK A01 T03060124  RH  034%=      5-min Rain = 0
KPPS 210450Z 17014G20KT 30/12 A2995 RMK A01 T03040123  RH  034%=      5-min Rain = 0
KPPS 210455Z 17012KT 30/12 A2995 RMK A01 T03020123  RH  035%=      5-min Rain = 0

Page generated in 0.0155 seconds.